sensor_id;sensor_type;location;lat;lon;timestamp;P1;durP1;ratioP1;P2;durP2;ratioP2
14847;SDS011;7516;43.570;1.448;2023-12-28T00:01:43;6.90;;;3.77;;
14847;SDS011;7516;43.570;1.448;2023-12-28T00:04:12;6.13;;;3.40;;
14847;SDS011;7516;43.570;1.448;2023-12-28T00:06:39;5.90;;;3.33;;
14847;SDS011;7516;43.570;1.448;2023-12-28T00:09:07;5.63;;;3.57;;
14847;SDS011;7516;43.570;1.448;2023-12-28T00:11:35;6.20;;;3.27;;
14847;SDS011;7516;43.570;1.448;2023-12-28T00:14:02;6.20;;;3.47;;
14847;SDS011;7516;43.570;1.448;2023-12-28T00:16:30;5.90;;;3.30;;
14847;SDS011;7516;43.570;1.448;2023-12-28T00:18:59;6.27;;;3.20;;
14847;SDS011;7516;43.570;1.448;2023-12-28T00:21:28;7.20;;;3.40;;
14847;SDS011;7516;43.570;1.448;2023-12-28T00:23:56;6.57;;;3.50;;
14847;SDS011;7516;43.570;1.448;2023-12-28T00:26:23;5.77;;;3.40;;
14847;SDS011;7516;43.570;1.448;2023-12-28T00:28:52;5.70;;;3.07;;
14847;SDS011;7516;43.570;1.448;2023-12-28T00:31:20;5.90;;;3.50;;
14847;SDS011;7516;43.570;1.448;2023-12-28T00:33:47;7.43;;;3.73;;
14847;SDS011;7516;43.570;1.448;2023-12-28T00:36:15;6.60;;;3.93;;
14847;SDS011;7516;43.570;1.448;2023-12-28T00:38:43;9.77;;;4.23;;
14847;SDS011;7516;43.570;1.448;2023-12-28T00:41:10;7.43;;;4.30;;
14847;SDS011;7516;43.570;1.448;2023-12-28T00:43:37;6.07;;;4.00;;
14847;SDS011;7516;43.570;1.448;2023-12-28T00:46:06;9.27;;;4.40;;
14847;SDS011;7516;43.570;1.448;2023-12-28T00:48:34;6.97;;;4.27;;
14847;SDS011;7516;43.570;1.448;2023-12-28T00:51:01;6.33;;;4.30;;
14847;SDS011;7516;43.570;1.448;2023-12-28T00:53:29;6.63;;;4.00;;
14847;SDS011;7516;43.570;1.448;2023-12-28T00:55:56;5.23;;;3.60;;
14847;SDS011;7516;43.570;1.448;2023-12-28T00:58:24;5.03;;;3.60;;
14847;SDS011;7516;43.570;1.448;2023-12-28T01:00:51;7.63;;;4.07;;
14847;SDS011;7516;43.570;1.448;2023-12-28T01:03:23;6.37;;;3.67;;
14847;SDS011;7516;43.570;1.448;2023-12-28T01:05:50;7.50;;;4.20;;
14847;SDS011;7516;43.570;1.448;2023-12-28T01:08:18;6.50;;;3.67;;
14847;SDS011;7516;43.570;1.448;2023-12-28T01:10:45;5.33;;;4.60;;
14847;SDS011;7516;43.570;1.448;2023-12-28T01:13:13;5.93;;;3.53;;
14847;SDS011;7516;43.570;1.448;2023-12-28T01:15:40;4.40;;;3.40;;
14847;SDS011;7516;43.570;1.448;2023-12-28T01:18:08;4.33;;;3.13;;
14847;SDS011;7516;43.570;1.448;2023-12-28T01:20:37;5.20;;;3.37;;
14847;SDS011;7516;43.570;1.448;2023-12-28T01:23:04;4.93;;;3.30;;
14847;SDS011;7516;43.570;1.448;2023-12-28T01:25:32;6.77;;;3.37;;
14847;SDS011;7516;43.570;1.448;2023-12-28T01:27:59;5.87;;;3.07;;
14847;SDS011;7516;43.570;1.448;2023-12-28T01:30:27;4.73;;;3.33;;
14847;SDS011;7516;43.570;1.448;2023-12-28T01:32:53;7.57;;;3.57;;
14847;SDS011;7516;43.570;1.448;2023-12-28T01:35:21;5.77;;;3.60;;
14847;SDS011;7516;43.570;1.448;2023-12-28T01:37:50;5.40;;;3.60;;
14847;SDS011;7516;43.570;1.448;2023-12-28T01:40:17;7.27;;;3.30;;
14847;SDS011;7516;43.570;1.448;2023-12-28T01:42:45;7.67;;;3.77;;
14847;SDS011;7516;43.570;1.448;2023-12-28T01:45:12;6.13;;;3.80;;
14847;SDS011;7516;43.570;1.448;2023-12-28T01:47:40;6.50;;;4.13;;
14847;SDS011;7516;43.570;1.448;2023-12-28T01:50:08;5.57;;;3.67;;
14847;SDS011;7516;43.570;1.448;2023-12-28T01:52:36;5.97;;;4.00;;
14847;SDS011;7516;43.570;1.448;2023-12-28T01:55:05;6.33;;;4.33;;
14847;SDS011;7516;43.570;1.448;2023-12-28T01:57:34;6.73;;;3.90;;
14847;SDS011;7516;43.570;1.448;2023-12-28T02:00:02;5.70;;;3.73;;
14847;SDS011;7516;43.570;1.448;2023-12-28T02:02:30;7.47;;;4.10;;
14847;SDS011;7516;43.570;1.448;2023-12-28T02:04:58;6.67;;;3.60;;
14847;SDS011;7516;43.570;1.448;2023-12-28T02:07:26;7.00;;;4.30;;
14847;SDS011;7516;43.570;1.448;2023-12-28T02:09:55;7.70;;;3.70;;
14847;SDS011;7516;43.570;1.448;2023-12-28T02:12:24;6.47;;;4.03;;
14847;SDS011;7516;43.570;1.448;2023-12-28T02:14:51;6.17;;;4.03;;
14847;SDS011;7516;43.570;1.448;2023-12-28T02:17:19;5.40;;;3.60;;
14847;SDS011;7516;43.570;1.448;2023-12-28T02:19:49;5.87;;;4.03;;
14847;SDS011;7516;43.570;1.448;2023-12-28T02:22:18;9.10;;;4.10;;
14847;SDS011;7516;43.570;1.448;2023-12-28T02:24:55;6.10;;;3.67;;
14847;SDS011;7516;43.570;1.448;2023-12-28T02:27:33;5.93;;;3.37;;
14847;SDS011;7516;43.570;1.448;2023-12-28T02:30:02;4.63;;;3.67;;
14847;SDS011;7516;43.570;1.448;2023-12-28T02:32:35;4.07;;;3.20;;
14847;SDS011;7516;43.570;1.448;2023-12-28T02:35:13;5.57;;;3.83;;
14847;SDS011;7516;43.570;1.448;2023-12-28T02:37:44;4.70;;;3.50;;
14847;SDS011;7516;43.570;1.448;2023-12-28T02:40:15;5.40;;;3.07;;
14847;SDS011;7516;43.570;1.448;2023-12-28T02:42:43;4.27;;;3.07;;
14847;SDS011;7516;43.570;1.448;2023-12-28T02:45:11;5.17;;;3.00;;
14847;SDS011;7516;43.570;1.448;2023-12-28T02:47:38;4.53;;;3.43;;
14847;SDS011;7516;43.570;1.448;2023-12-28T02:50:06;4.20;;;3.10;;
14847;SDS011;7516;43.570;1.448;2023-12-28T02:52:34;4.97;;;3.07;;
14847;SDS011;7516;43.570;1.448;2023-12-28T02:55:02;4.93;;;3.20;;
14847;SDS011;7516;43.570;1.448;2023-12-28T02:57:31;7.10;;;3.47;;
14847;SDS011;7516;43.570;1.448;2023-12-28T03:00:02;4.17;;;3.30;;
14847;SDS011;7516;43.570;1.448;2023-12-28T03:02:32;7.27;;;3.50;;
14847;SDS011;7516;43.570;1.448;2023-12-28T03:04:59;4.20;;;3.27;;
14847;SDS011;7516;43.570;1.448;2023-12-28T03:07:26;4.77;;;3.90;;
14847;SDS011;7516;43.570;1.448;2023-12-28T03:09:54;4.67;;;3.13;;
14847;SDS011;7516;43.570;1.448;2023-12-28T03:12:21;5.73;;;3.40;;
14847;SDS011;7516;43.570;1.448;2023-12-28T03:14:50;4.80;;;3.67;;
14847;SDS011;7516;43.570;1.448;2023-12-28T03:17:18;5.77;;;3.80;;
14847;SDS011;7516;43.570;1.448;2023-12-28T03:19:45;4.97;;;3.63;;
14847;SDS011;7516;43.570;1.448;2023-12-28T03:22:13;6.17;;;3.83;;
14847;SDS011;7516;43.570;1.448;2023-12-28T03:24:42;7.47;;;3.70;;
14847;SDS011;7516;43.570;1.448;2023-12-28T03:27:09;5.87;;;3.67;;
14847;SDS011;7516;43.570;1.448;2023-12-28T03:29:37;4.47;;;3.53;;
14847;SDS011;7516;43.570;1.448;2023-12-28T03:32:06;4.67;;;3.40;;
14847;SDS011;7516;43.570;1.448;2023-12-28T03:34:34;5.23;;;3.70;;
14847;SDS011;7516;43.570;1.448;2023-12-28T03:37:01;5.00;;;3.57;;
14847;SDS011;7516;43.570;1.448;2023-12-28T03:39:29;5.17;;;3.80;;
14847;SDS011;7516;43.570;1.448;2023-12-28T03:41:56;5.33;;;3.50;;
14847;SDS011;7516;43.570;1.448;2023-12-28T03:44:24;4.97;;;3.90;;
14847;SDS011;7516;43.570;1.448;2023-12-28T03:46:51;4.43;;;3.50;;
14847;SDS011;7516;43.570;1.448;2023-12-28T03:49:20;5.67;;;3.60;;
14847;SDS011;7516;43.570;1.448;2023-12-28T03:51:48;5.17;;;3.63;;
14847;SDS011;7516;43.570;1.448;2023-12-28T03:54:16;4.03;;;3.50;;
14847;SDS011;7516;43.570;1.448;2023-12-28T03:56:45;4.47;;;3.30;;
14847;SDS011;7516;43.570;1.448;2023-12-28T03:59:13;4.80;;;3.50;;
14847;SDS011;7516;43.570;1.448;2023-12-28T04:01:41;5.03;;;3.37;;
14847;SDS011;7516;43.570;1.448;2023-12-28T04:04:08;5.20;;;3.57;;
14847;SDS011;7516;43.570;1.448;2023-12-28T04:06:38;5.30;;;3.50;;
14847;SDS011;7516;43.570;1.448;2023-12-28T04:09:06;7.97;;;3.73;;
14847;SDS011;7516;43.570;1.448;2023-12-28T04:11:34;5.33;;;3.30;;
14847;SDS011;7516;43.570;1.448;2023-12-28T04:14:02;4.43;;;3.43;;
14847;SDS011;7516;43.570;1.448;2023-12-28T04:16:30;4.77;;;3.67;;
14847;SDS011;7516;43.570;1.448;2023-12-28T04:18:57;6.20;;;4.10;;
14847;SDS011;7516;43.570;1.448;2023-12-28T04:21:25;5.17;;;3.30;;
14847;SDS011;7516;43.570;1.448;2023-12-28T04:23:53;6.70;;;3.50;;
14847;SDS011;7516;43.570;1.448;2023-12-28T04:26:21;4.67;;;3.33;;
14847;SDS011;7516;43.570;1.448;2023-12-28T04:28:49;5.87;;;3.57;;
14847;SDS011;7516;43.570;1.448;2023-12-28T04:31:16;4.63;;;3.50;;
14847;SDS011;7516;43.570;1.448;2023-12-28T04:33:44;4.47;;;3.43;;
14847;SDS011;7516;43.570;1.448;2023-12-28T04:36:11;4.30;;;3.53;;
14847;SDS011;7516;43.570;1.448;2023-12-28T04:38:39;4.13;;;3.23;;
14847;SDS011;7516;43.570;1.448;2023-12-28T04:41:09;4.20;;;3.30;;
14847;SDS011;7516;43.570;1.448;2023-12-28T04:43:37;4.13;;;3.20;;
14847;SDS011;7516;43.570;1.448;2023-12-28T04:46:04;5.47;;;3.80;;
14847;SDS011;7516;43.570;1.448;2023-12-28T04:48:32;4.87;;;3.47;;
14847;SDS011;7516;43.570;1.448;2023-12-28T04:51:02;4.27;;;3.60;;
14847;SDS011;7516;43.570;1.448;2023-12-28T04:53:29;6.13;;;3.80;;
14847;SDS011;7516;43.570;1.448;2023-12-28T04:55:57;4.60;;;3.70;;
14847;SDS011;7516;43.570;1.448;2023-12-28T04:58:26;5.77;;;3.33;;
14847;SDS011;7516;43.570;1.448;2023-12-28T05:00:53;4.70;;;3.53;;
14847;SDS011;7516;43.570;1.448;2023-12-28T05:03:21;4.53;;;3.50;;
14847;SDS011;7516;43.570;1.448;2023-12-28T05:05:48;6.90;;;3.80;;
14847;SDS011;7516;43.570;1.448;2023-12-28T05:08:16;7.37;;;4.00;;
14847;SDS011;7516;43.570;1.448;2023-12-28T05:10:43;4.27;;;3.40;;
14847;SDS011;7516;43.570;1.448;2023-12-28T05:13:10;5.70;;;3.60;;
14847;SDS011;7516;43.570;1.448;2023-12-28T05:15:39;4.40;;;3.63;;
14847;SDS011;7516;43.570;1.448;2023-12-28T05:18:07;5.40;;;3.93;;
14847;SDS011;7516;43.570;1.448;2023-12-28T05:20:34;4.83;;;3.80;;
14847;SDS011;7516;43.570;1.448;2023-12-28T05:23:02;4.33;;;3.73;;
14847;SDS011;7516;43.570;1.448;2023-12-28T05:25:30;5.47;;;3.87;;
14847;SDS011;7516;43.570;1.448;2023-12-28T05:27:57;5.30;;;3.60;;
14847;SDS011;7516;43.570;1.448;2023-12-28T05:30:24;4.97;;;3.90;;
14847;SDS011;7516;43.570;1.448;2023-12-28T05:32:53;4.13;;;3.43;;
14847;SDS011;7516;43.570;1.448;2023-12-28T05:35:21;4.60;;;3.60;;
14847;SDS011;7516;43.570;1.448;2023-12-28T05:37:48;6.60;;;3.30;;
14847;SDS011;7516;43.570;1.448;2023-12-28T05:40:16;4.77;;;3.53;;
14847;SDS011;7516;43.570;1.448;2023-12-28T05:42:43;6.53;;;3.63;;
14847;SDS011;7516;43.570;1.448;2023-12-28T05:45:11;5.50;;;3.50;;
14847;SDS011;7516;43.570;1.448;2023-12-28T05:47:39;7.27;;;3.67;;
14847;SDS011;7516;43.570;1.448;2023-12-28T05:50:08;5.43;;;3.40;;
14847;SDS011;7516;43.570;1.448;2023-12-28T05:52:36;4.80;;;3.57;;
14847;SDS011;7516;43.570;1.448;2023-12-28T05:55:03;5.60;;;3.30;;
14847;SDS011;7516;43.570;1.448;2023-12-28T05:57:31;4.97;;;3.57;;
14847;SDS011;7516;43.570;1.448;2023-12-28T05:59:59;5.43;;;3.50;;
14847;SDS011;7516;43.570;1.448;2023-12-28T06:02:26;4.23;;;3.07;;
14847;SDS011;7516;43.570;1.448;2023-12-28T06:04:54;3.83;;;3.40;;
14847;SDS011;7516;43.570;1.448;2023-12-28T06:07:23;6.77;;;3.50;;
14847;SDS011;7516;43.570;1.448;2023-12-28T06:09:51;5.33;;;3.13;;
14847;SDS011;7516;43.570;1.448;2023-12-28T06:12:18;3.60;;;3.10;;
14847;SDS011;7516;43.570;1.448;2023-12-28T06:14:45;5.27;;;2.97;;
14847;SDS011;7516;43.570;1.448;2023-12-28T06:17:13;4.90;;;3.00;;
14847;SDS011;7516;43.570;1.448;2023-12-28T06:19:41;4.30;;;3.07;;
14847;SDS011;7516;43.570;1.448;2023-12-28T06:22:09;5.83;;;3.57;;
14847;SDS011;7516;43.570;1.448;2023-12-28T06:24:38;3.73;;;2.70;;
14847;SDS011;7516;43.570;1.448;2023-12-28T06:27:06;4.30;;;3.03;;
14847;SDS011;7516;43.570;1.448;2023-12-28T06:29:34;3.90;;;2.83;;
14847;SDS011;7516;43.570;1.448;2023-12-28T06:32:01;7.03;;;3.50;;
14847;SDS011;7516;43.570;1.448;2023-12-28T06:34:29;5.20;;;3.10;;
14847;SDS011;7516;43.570;1.448;2023-12-28T06:36:56;6.37;;;3.60;;
14847;SDS011;7516;43.570;1.448;2023-12-28T06:39:26;5.20;;;3.07;;
14847;SDS011;7516;43.570;1.448;2023-12-28T06:41:55;4.03;;;2.97;;
14847;SDS011;7516;43.570;1.448;2023-12-28T06:44:22;4.83;;;2.87;;
14847;SDS011;7516;43.570;1.448;2023-12-28T06:46:49;5.27;;;3.43;;
14847;SDS011;7516;43.570;1.448;2023-12-28T06:49:17;5.03;;;3.37;;
14847;SDS011;7516;43.570;1.448;2023-12-28T06:51:44;6.10;;;3.20;;
14847;SDS011;7516;43.570;1.448;2023-12-28T06:54:12;6.33;;;3.17;;
14847;SDS011;7516;43.570;1.448;2023-12-28T06:56:40;4.70;;;3.10;;
14847;SDS011;7516;43.570;1.448;2023-12-28T06:59:09;4.17;;;3.00;;
14847;SDS011;7516;43.570;1.448;2023-12-28T07:01:37;5.77;;;3.33;;
14847;SDS011;7516;43.570;1.448;2023-12-28T07:04:04;4.67;;;3.17;;
14847;SDS011;7516;43.570;1.448;2023-12-28T07:06:32;4.30;;;3.20;;
14847;SDS011;7516;43.570;1.448;2023-12-28T07:08:59;5.80;;;3.40;;
14847;SDS011;7516;43.570;1.448;2023-12-28T07:11:27;5.83;;;2.90;;
14847;SDS011;7516;43.570;1.448;2023-12-28T07:13:54;5.43;;;3.07;;
14847;SDS011;7516;43.570;1.448;2023-12-28T07:16:23;5.53;;;3.70;;
14847;SDS011;7516;43.570;1.448;2023-12-28T07:18:51;6.53;;;3.43;;
14847;SDS011;7516;43.570;1.448;2023-12-28T07:21:19;6.30;;;4.00;;
14847;SDS011;7516;43.570;1.448;2023-12-28T07:23:46;4.57;;;3.23;;
14847;SDS011;7516;43.570;1.448;2023-12-28T07:26:15;4.70;;;3.03;;
14847;SDS011;7516;43.570;1.448;2023-12-28T07:28:43;5.30;;;3.20;;
14847;SDS011;7516;43.570;1.448;2023-12-28T07:31:21;4.10;;;3.07;;
14847;SDS011;7516;43.570;1.448;2023-12-28T07:33:51;4.37;;;3.10;;
14847;SDS011;7516;43.570;1.448;2023-12-28T07:36:18;5.53;;;3.13;;
14847;SDS011;7516;43.570;1.448;2023-12-28T07:38:46;5.67;;;3.10;;
14847;SDS011;7516;43.570;1.448;2023-12-28T07:41:14;4.97;;;3.10;;
14847;SDS011;7516;43.570;1.448;2023-12-28T07:43:41;5.20;;;3.10;;
14847;SDS011;7516;43.570;1.448;2023-12-28T07:46:09;5.33;;;2.60;;
14847;SDS011;7516;43.570;1.448;2023-12-28T07:48:38;5.80;;;3.13;;
14847;SDS011;7516;43.570;1.448;2023-12-28T07:51:05;4.23;;;2.90;;
14847;SDS011;7516;43.570;1.448;2023-12-28T07:53:33;3.83;;;2.90;;
14847;SDS011;7516;43.570;1.448;2023-12-28T07:56:00;3.73;;;3.17;;
14847;SDS011;7516;43.570;1.448;2023-12-28T07:58:28;5.40;;;3.53;;
14847;SDS011;7516;43.570;1.448;2023-12-28T08:00:56;3.67;;;2.77;;
14847;SDS011;7516;43.570;1.448;2023-12-28T08:03:23;4.30;;;3.07;;
14847;SDS011;7516;43.570;1.448;2023-12-28T08:05:52;7.13;;;3.20;;
14847;SDS011;7516;43.570;1.448;2023-12-28T08:08:20;4.07;;;3.03;;
14847;SDS011;7516;43.570;1.448;2023-12-28T08:10:47;5.43;;;3.43;;
14847;SDS011;7516;43.570;1.448;2023-12-28T08:13:15;4.77;;;3.20;;
14847;SDS011;7516;43.570;1.448;2023-12-28T08:15:42;5.07;;;3.07;;
14847;SDS011;7516;43.570;1.448;2023-12-28T08:18:11;4.73;;;2.97;;
14847;SDS011;7516;43.570;1.448;2023-12-28T08:20:39;5.17;;;3.17;;
14847;SDS011;7516;43.570;1.448;2023-12-28T08:23:08;5.87;;;3.13;;
14847;SDS011;7516;43.570;1.448;2023-12-28T08:25:36;5.30;;;3.30;;
14847;SDS011;7516;43.570;1.448;2023-12-28T08:28:03;5.33;;;3.33;;
14847;SDS011;7516;43.570;1.448;2023-12-28T08:30:31;4.27;;;3.23;;
14847;SDS011;7516;43.570;1.448;2023-12-28T08:32:58;4.93;;;3.40;;
14847;SDS011;7516;43.570;1.448;2023-12-28T08:35:26;5.70;;;3.60;;
14847;SDS011;7516;43.570;1.448;2023-12-28T08:37:54;4.83;;;3.23;;
14847;SDS011;7516;43.570;1.448;2023-12-28T08:40:22;4.80;;;3.10;;
14847;SDS011;7516;43.570;1.448;2023-12-28T08:42:50;6.40;;;3.50;;
14847;SDS011;7516;43.570;1.448;2023-12-28T08:45:18;5.27;;;3.50;;
14847;SDS011;7516;43.570;1.448;2023-12-28T08:47:46;5.07;;;3.40;;
14847;SDS011;7516;43.570;1.448;2023-12-28T08:50:14;4.97;;;3.83;;
14847;SDS011;7516;43.570;1.448;2023-12-28T08:52:41;5.30;;;3.47;;
14847;SDS011;7516;43.570;1.448;2023-12-28T08:55:09;6.90;;;3.23;;
14847;SDS011;7516;43.570;1.448;2023-12-28T08:57:38;5.57;;;3.70;;
14847;SDS011;7516;43.570;1.448;2023-12-28T09:00:06;6.20;;;3.47;;
14847;SDS011;7516;43.570;1.448;2023-12-28T09:02:34;5.33;;;3.63;;
14847;SDS011;7516;43.570;1.448;2023-12-28T09:05:02;4.00;;;3.13;;
14847;SDS011;7516;43.570;1.448;2023-12-28T09:07:30;7.70;;;3.77;;
14847;SDS011;7516;43.570;1.448;2023-12-28T09:09:58;6.17;;;3.87;;
14847;SDS011;7516;43.570;1.448;2023-12-28T09:12:25;8.30;;;4.00;;
14847;SDS011;7516;43.570;1.448;2023-12-28T09:14:54;6.83;;;4.20;;
14847;SDS011;7516;43.570;1.448;2023-12-28T09:17:22;6.83;;;4.53;;
14847;SDS011;7516;43.570;1.448;2023-12-28T09:19:50;7.13;;;4.60;;
14847;SDS011;7516;43.570;1.448;2023-12-28T09:22:17;7.70;;;3.87;;
14847;SDS011;7516;43.570;1.448;2023-12-28T09:24:45;6.87;;;4.83;;
14847;SDS011;7516;43.570;1.448;2023-12-28T09:27:12;7.70;;;4.77;;
14847;SDS011;7516;43.570;1.448;2023-12-28T09:29:40;8.20;;;4.83;;
14847;SDS011;7516;43.570;1.448;2023-12-28T09:32:08;6.93;;;4.80;;
14847;SDS011;7516;43.570;1.448;2023-12-28T09:34:36;7.47;;;4.87;;
14847;SDS011;7516;43.570;1.448;2023-12-28T09:37:04;7.23;;;4.63;;
14847;SDS011;7516;43.570;1.448;2023-12-28T09:39:31;8.37;;;4.90;;
14847;SDS011;7516;43.570;1.448;2023-12-28T09:41:59;10.23;;;5.00;;
14847;SDS011;7516;43.570;1.448;2023-12-28T09:44:30;10.27;;;4.73;;
14847;SDS011;7516;43.570;1.448;2023-12-28T09:46:58;7.70;;;5.10;;
14847;SDS011;7516;43.570;1.448;2023-12-28T09:49:33;5.50;;;2.77;;
14847;SDS011;7516;43.570;1.448;2023-12-28T09:52:03;5.17;;;1.90;;
14847;SDS011;7516;43.570;1.448;2023-12-28T09:54:32;8.87;;;4.00;;
14847;SDS011;7516;43.570;1.448;2023-12-28T09:57:00;2.83;;;1.60;;
14847;SDS011;7516;43.570;1.448;2023-12-28T09:59:29;3.50;;;2.53;;
14847;SDS011;7516;43.570;1.448;2023-12-28T10:01:58;5.57;;;1.70;;
14847;SDS011;7516;43.570;1.448;2023-12-28T10:04:28;6.17;;;4.30;;
14847;SDS011;7516;43.570;1.448;2023-12-28T10:06:57;7.00;;;4.30;;
14847;SDS011;7516;43.570;1.448;2023-12-28T10:09:25;6.50;;;4.13;;
14847;SDS011;7516;43.570;1.448;2023-12-28T10:11:55;3.50;;;2.10;;
14847;SDS011;7516;43.570;1.448;2023-12-28T10:14:25;6.17;;;3.83;;
14847;SDS011;7516;43.570;1.448;2023-12-28T10:16:52;4.63;;;2.60;;
14847;SDS011;7516;43.570;1.448;2023-12-28T10:19:21;6.07;;;3.77;;
14847;SDS011;7516;43.570;1.448;2023-12-28T10:21:49;3.53;;;2.40;;
14847;SDS011;7516;43.570;1.448;2023-12-28T10:24:18;6.40;;;3.73;;
14847;SDS011;7516;43.570;1.448;2023-12-28T10:26:46;4.27;;;2.70;;
14847;SDS011;7516;43.570;1.448;2023-12-28T10:29:13;5.60;;;3.90;;
14847;SDS011;7516;43.570;1.448;2023-12-28T10:31:41;3.83;;;2.43;;
14847;SDS011;7516;43.570;1.448;2023-12-28T10:34:10;1.23;;;1.13;;
14847;SDS011;7516;43.570;1.448;2023-12-28T10:36:37;3.17;;;1.70;;
14847;SDS011;7516;43.570;1.448;2023-12-28T10:39:06;8.67;;;4.63;;
14847;SDS011;7516;43.570;1.448;2023-12-28T10:41:38;5.43;;;3.80;;
14847;SDS011;7516;43.570;1.448;2023-12-28T10:44:10;4.00;;;1.47;;
14847;SDS011;7516;43.570;1.448;2023-12-28T10:46:42;3.27;;;2.00;;
14847;SDS011;7516;43.570;1.448;2023-12-28T10:49:11;2.13;;;1.53;;
14847;SDS011;7516;43.570;1.448;2023-12-28T10:51:42;3.73;;;2.03;;
14847;SDS011;7516;43.570;1.448;2023-12-28T10:54:18;5.90;;;3.10;;
14847;SDS011;7516;43.570;1.448;2023-12-28T10:56:57;2.63;;;1.80;;
14847;SDS011;7516;43.570;1.448;2023-12-28T10:59:39;1.60;;;1.50;;
14847;SDS011;7516;43.570;1.448;2023-12-28T11:02:15;5.80;;;3.97;;
14847;SDS011;7516;43.570;1.448;2023-12-28T11:04:47;3.27;;;2.57;;
14847;SDS011;7516;43.570;1.448;2023-12-28T11:07:18;7.27;;;5.07;;
14847;SDS011;7516;43.570;1.448;2023-12-28T11:09:47;9.07;;;5.87;;
14847;SDS011;7516;43.570;1.448;2023-12-28T11:12:17;9.97;;;5.97;;
14847;SDS011;7516;43.570;1.448;2023-12-28T11:14:46;9.33;;;4.43;;
14847;SDS011;7516;43.570;1.448;2023-12-28T11:17:16;6.30;;;4.17;;
14847;SDS011;7516;43.570;1.448;2023-12-28T11:19:43;4.07;;;2.77;;
14847;SDS011;7516;43.570;1.448;2023-12-28T11:22:12;7.73;;;4.60;;
14847;SDS011;7516;43.570;1.448;2023-12-28T11:24:41;5.77;;;4.17;;
14847;SDS011;7516;43.570;1.448;2023-12-28T11:27:08;6.07;;;4.53;;
14847;SDS011;7516;43.570;1.448;2023-12-28T11:29:39;7.63;;;3.50;;
14847;SDS011;7516;43.570;1.448;2023-12-28T11:32:09;5.80;;;4.80;;
14847;SDS011;7516;43.570;1.448;2023-12-28T11:34:37;5.13;;;4.40;;
14847;SDS011;7516;43.570;1.448;2023-12-28T11:37:06;8.30;;;4.93;;
14847;SDS011;7516;43.570;1.448;2023-12-28T11:39:39;9.13;;;4.77;;
14847;SDS011;7516;43.570;1.448;2023-12-28T11:42:09;5.90;;;4.17;;
14847;SDS011;7516;43.570;1.448;2023-12-28T11:44:39;7.13;;;3.90;;
14847;SDS011;7516;43.570;1.448;2023-12-28T11:47:12;5.23;;;4.60;;
14847;SDS011;7516;43.570;1.448;2023-12-28T11:49:39;4.13;;;2.50;;
14847;SDS011;7516;43.570;1.448;2023-12-28T11:52:07;5.57;;;4.47;;
14847;SDS011;7516;43.570;1.448;2023-12-28T11:54:36;7.60;;;4.97;;
14847;SDS011;7516;43.570;1.448;2023-12-28T11:57:03;6.07;;;4.37;;
14847;SDS011;7516;43.570;1.448;2023-12-28T11:59:31;6.83;;;4.77;;
14847;SDS011;7516;43.570;1.448;2023-12-28T12:02:01;8.50;;;5.47;;
14847;SDS011;7516;43.570;1.448;2023-12-28T12:04:33;7.93;;;4.93;;
14847;SDS011;7516;43.570;1.448;2023-12-28T12:07:01;4.37;;;2.87;;
14847;SDS011;7516;43.570;1.448;2023-12-28T12:09:30;11.33;;;4.33;;
14847;SDS011;7516;43.570;1.448;2023-12-28T12:11:59;9.27;;;4.27;;
14847;SDS011;7516;43.570;1.448;2023-12-28T12:14:27;4.17;;;3.13;;
14847;SDS011;7516;43.570;1.448;2023-12-28T12:16:56;6.10;;;4.10;;
14847;SDS011;7516;43.570;1.448;2023-12-28T12:19:26;6.30;;;4.87;;
14847;SDS011;7516;43.570;1.448;2023-12-28T12:21:54;6.07;;;3.47;;
14847;SDS011;7516;43.570;1.448;2023-12-28T12:24:23;7.23;;;5.03;;
14847;SDS011;7516;43.570;1.448;2023-12-28T12:26:51;1.93;;;1.40;;
14847;SDS011;7516;43.570;1.448;2023-12-28T12:29:19;6.03;;;4.30;;
14847;SDS011;7516;43.570;1.448;2023-12-28T12:31:47;5.70;;;4.47;;
14847;SDS011;7516;43.570;1.448;2023-12-28T12:34:15;4.83;;;3.67;;
14847;SDS011;7516;43.570;1.448;2023-12-28T12:36:44;7.23;;;4.80;;
14847;SDS011;7516;43.570;1.448;2023-12-28T12:39:12;9.63;;;5.13;;
14847;SDS011;7516;43.570;1.448;2023-12-28T12:41:40;6.63;;;4.87;;
14847;SDS011;7516;43.570;1.448;2023-12-28T12:44:08;6.33;;;4.57;;
14847;SDS011;7516;43.570;1.448;2023-12-28T12:46:36;2.93;;;2.33;;
14847;SDS011;7516;43.570;1.448;2023-12-28T12:49:05;8.20;;;4.70;;
14847;SDS011;7516;43.570;1.448;2023-12-28T12:51:32;6.30;;;4.23;;
14847;SDS011;7516;43.570;1.448;2023-12-28T12:54:02;8.10;;;4.80;;
14847;SDS011;7516;43.570;1.448;2023-12-28T12:56:30;6.30;;;4.47;;
14847;SDS011;7516;43.570;1.448;2023-12-28T12:58:58;8.30;;;4.90;;
14847;SDS011;7516;43.570;1.448;2023-12-28T13:01:25;7.97;;;4.83;;
14847;SDS011;7516;43.570;1.448;2023-12-28T13:03:53;5.60;;;4.00;;
14847;SDS011;7516;43.570;1.448;2023-12-28T13:06:22;8.27;;;5.20;;
14847;SDS011;7516;43.570;1.448;2023-12-28T13:08:49;5.47;;;2.20;;
14847;SDS011;7516;43.570;1.448;2023-12-28T13:11:18;12.03;;;4.30;;
14847;SDS011;7516;43.570;1.448;2023-12-28T13:13:51;6.97;;;4.07;;
14847;SDS011;7516;43.570;1.448;2023-12-28T13:16:18;7.43;;;3.70;;
14847;SDS011;7516;43.570;1.448;2023-12-28T13:18:46;3.80;;;2.90;;
14847;SDS011;7516;43.570;1.448;2023-12-28T13:21:13;4.90;;;2.83;;
14847;SDS011;7516;43.570;1.448;2023-12-28T13:23:41;5.87;;;4.33;;
14847;SDS011;7516;43.570;1.448;2023-12-28T13:26:08;6.57;;;4.80;;
14847;SDS011;7516;43.570;1.448;2023-12-28T13:28:37;7.27;;;5.03;;
14847;SDS011;7516;43.570;1.448;2023-12-28T13:31:05;7.20;;;5.03;;
14847;SDS011;7516;43.570;1.448;2023-12-28T13:33:32;7.30;;;4.83;;
14847;SDS011;7516;43.570;1.448;2023-12-28T13:36:00;6.80;;;5.30;;
14847;SDS011;7516;43.570;1.448;2023-12-28T13:38:28;11.20;;;5.83;;
14847;SDS011;7516;43.570;1.448;2023-12-28T13:40:56;6.53;;;4.90;;
14847;SDS011;7516;43.570;1.448;2023-12-28T13:43:23;6.30;;;5.00;;
14847;SDS011;7516;43.570;1.448;2023-12-28T13:45:52;7.83;;;5.57;;
14847;SDS011;7516;43.570;1.448;2023-12-28T13:48:20;5.43;;;4.93;;
14847;SDS011;7516;43.570;1.448;2023-12-28T13:50:48;6.30;;;5.27;;
14847;SDS011;7516;43.570;1.448;2023-12-28T13:53:16;7.00;;;4.97;;
14847;SDS011;7516;43.570;1.448;2023-12-28T13:55:44;7.37;;;5.37;;
14847;SDS011;7516;43.570;1.448;2023-12-28T13:58:12;5.93;;;5.07;;
14847;SDS011;7516;43.570;1.448;2023-12-28T14:00:39;8.13;;;5.13;;
14847;SDS011;7516;43.570;1.448;2023-12-28T14:03:08;5.90;;;4.50;;
14847;SDS011;7516;43.570;1.448;2023-12-28T14:05:35;8.13;;;5.37;;
14847;SDS011;7516;43.570;1.448;2023-12-28T14:08:03;7.57;;;5.63;;
14847;SDS011;7516;43.570;1.448;2023-12-28T14:10:31;5.80;;;5.10;;
14847;SDS011;7516;43.570;1.448;2023-12-28T14:12:59;9.03;;;4.60;;
14847;SDS011;7516;43.570;1.448;2023-12-28T14:15:26;8.60;;;5.33;;
14847;SDS011;7516;43.570;1.448;2023-12-28T14:17:53;8.67;;;5.33;;
14847;SDS011;7516;43.570;1.448;2023-12-28T14:20:22;6.90;;;5.20;;
14847;SDS011;7516;43.570;1.448;2023-12-28T14:22:50;7.77;;;5.30;;
14847;SDS011;7516;43.570;1.448;2023-12-28T14:25:18;12.77;;;6.10;;
14847;SDS011;7516;43.570;1.448;2023-12-28T14:27:46;15.30;;;8.13;;
14847;SDS011;7516;43.570;1.448;2023-12-28T14:30:15;22.60;;;8.93;;
14847;SDS011;7516;43.570;1.448;2023-12-28T14:32:43;17.90;;;8.87;;
14847;SDS011;7516;43.570;1.448;2023-12-28T14:35:12;21.10;;;10.60;;
14847;SDS011;7516;43.570;1.448;2023-12-28T14:37:43;21.70;;;11.30;;
14847;SDS011;7516;43.570;1.448;2023-12-28T14:40:11;22.50;;;11.73;;
14847;SDS011;7516;43.570;1.448;2023-12-28T14:42:39;24.40;;;11.97;;
14847;SDS011;7516;43.570;1.448;2023-12-28T14:45:07;22.53;;;11.93;;
14847;SDS011;7516;43.570;1.448;2023-12-28T14:47:35;19.37;;;10.67;;
14847;SDS011;7516;43.570;1.448;2023-12-28T14:50:03;21.87;;;10.70;;
14847;SDS011;7516;43.570;1.448;2023-12-28T14:52:31;20.10;;;9.87;;
14847;SDS011;7516;43.570;1.448;2023-12-28T14:55:00;21.03;;;11.50;;
14847;SDS011;7516;43.570;1.448;2023-12-28T14:57:28;19.40;;;10.77;;
14847;SDS011;7516;43.570;1.448;2023-12-28T14:59:55;16.83;;;10.07;;
14847;SDS011;7516;43.570;1.448;2023-12-28T15:02:23;16.30;;;9.57;;
14847;SDS011;7516;43.570;1.448;2023-12-28T15:04:50;16.20;;;9.63;;
14847;SDS011;7516;43.570;1.448;2023-12-28T15:07:17;16.70;;;9.77;;